Airfield :
LOGIN :

Register | Disclaimer

   EN    FR    IT 

 










Legend :    VFR   Marginal VFR   IFR   Intensive IFR   Very Intensive IFR
Visi :
Ceiling :
>= 8 km
>= 3000ft
5 to 8 km
1000 to 3000 ft
1500m to 5 km
500 to 1000 ft
800 to 1500m
200 to 500 ft
< 800m
< 200 ft
Symbols :   Thunderstorms  Fog  Heavy snow  Heavy precipitations  Wind > 20 kt
SIGMETs :     Misc.  Thunderstorms  Icing  Turbulence  Mountain Waves  Volcanic Ashes







- Airport Elevation : 665 ft
- IATA code : NOC


EIKN - Connaught / Knock- Ireland West

CURRENT METAR :
  • 130700Z 13019KT 100V170 9999 -RA SCT004 BKN007 05/04 Q1002 TEMPO 3000

EXPIRED METARs :
  • 130630Z 13020G33KT 100V170 9999 -DZRA BKN006 OVC008 05/04 Q1002 NOSIG
  • 130600Z 13020G34KT 100V170 9999 -DZ SCT006 OVC010 05/04 Q1002 NOSIG

TAF TAF EIKN
Valid from the 13 at 06:00 until the 14 at 06:00 UTC


130500Z 1306/1406 13018G33KT 9999 -RADZ BKN006
TEMPO 1306/1308 0500 FG BKN001
TEMPO 1308/1406 3000 -RADZ BR BKN004
BECMG 1314/1316 13012KT
BECMG 1402/1404 16010KT
PROB30
TEMPO 1402/1406 0500 FG BKN001
No reported NOTAMs for that airfield.
1 SIGMET reported for the Shannon FIR (EISN) :
 
Severe turbulence
EISN SIGMET 01 VALID 130400/130700 EINN
EISN SHANNON FIR SEV TURB FCST E OF W01030 SFC/FL060 STNR WKN=



MET'MAP, your aeronautical weather chart ! - Copyright ORBIFLY December 2007 - Disclaimer

ORBIFLY MET'MAP TEAM :

Programming & Development : Alexandra Zaïnal
Concept & Development : Baudouin d'Aumeries
Co-Development & Prog : Marc-Olivier Méhu
Technical & hardware support : Manuel Goepfert

Contact : metmap@orbifly.com




SOURCES & CREDITS :

   NOAA